createdAt,value
2022-11-28T00:02:02.801Z,78.69
2022-11-28T00:04:32.300Z,79.03
2022-11-28T00:07:02.166Z,79.79
2022-11-28T00:09:31.728Z,79.92
2022-11-28T00:12:02.653Z,80.37
2022-11-28T00:14:32.182Z,80.54
2022-11-28T00:17:01.790Z,81.83
2022-11-28T00:19:31.149Z,82.59
2022-11-28T00:22:00.620Z,82.98
2022-11-28T00:24:30.100Z,83.08
2022-11-28T00:26:59.532Z,83.46
2022-11-28T00:29:30.529Z,83.65
2022-11-28T00:31:59.978Z,84.14
2022-11-28T00:34:29.498Z,84.29
2022-11-28T00:36:59.085Z,84.71
2022-11-28T00:39:28.416Z,84.88
2022-11-28T00:41:57.891Z,85.24
2022-11-28T00:44:28.810Z,85.17
2022-11-28T00:46:58.318Z,85.30
2022-11-28T00:51:10.366Z,85.69
2022-11-28T00:53:42.732Z,86.38
2022-11-28T00:56:14.650Z,86.15
2022-11-28T00:58:45.285Z,85.85
2022-11-28T01:01:18.270Z,86.24
2022-11-28T01:03:48.995Z,86.58
2022-11-28T01:06:26.761Z,86.69
2022-11-28T01:08:57.180Z,86.58
2022-11-28T01:11:26.862Z,86.84
2022-11-28T01:13:57.714Z,87.04
2022-11-28T01:16:27.545Z,86.83
2022-11-28T01:18:57.440Z,87.02
2022-11-28T01:21:29.272Z,87.28
2022-11-28T01:23:58.791Z,87.28
2022-11-28T01:26:31.751Z,87.18
2022-11-28T01:29:03.072Z,87.59
2022-11-28T01:31:33.168Z,87.19
2022-11-28T01:34:02.860Z,87.56
2022-11-28T01:36:34.449Z,87.83
2022-11-28T01:39:04.033Z,87.85
2022-11-28T01:45:03.780Z,88.09
2022-11-28T01:47:34.611Z,87.58
2022-11-28T01:50:07.266Z,87.98
2022-11-28T01:52:40.318Z,87.90
2022-11-28T01:55:12.706Z,88.04
2022-11-28T01:57:42.558Z,88.12
2022-11-28T02:00:15.710Z,88.19
2022-11-28T02:02:49.467Z,88.21
2022-11-28T02:05:24.072Z,88.08
2022-11-28T02:07:55.444Z,88.02
2022-11-28T02:10:29.026Z,88.41
2022-11-28T02:13:29.955Z,88.84
2022-11-28T02:16:33.955Z,89.01
2022-11-28T02:19:41.122Z,89.16
2022-11-28T02:22:16.570Z,89.27
2022-11-28T02:25:27.738Z,89.42
2022-11-28T02:28:32.830Z,90.04
2022-11-28T02:31:18.178Z,90.16
2022-11-28T02:33:54.270Z,90.29
2022-11-28T02:36:33.416Z,90.41
2022-11-28T02:39:15.338Z,90.43
2022-11-28T02:41:52.232Z,90.84
2022-11-28T02:44:26.312Z,90.65
2022-11-28T02:47:04.290Z,90.86
2022-11-28T02:49:40.303Z,90.99
2022-11-28T02:52:14.009Z,91.39
2022-11-28T02:54:45.886Z,91.95
2022-11-28T02:57:15.295Z,92.44
2022-11-28T02:59:52.192Z,92.38
2022-11-28T03:02:29.439Z,92.63
2022-11-28T03:05:12.626Z,93.03
2022-11-28T03:07:55.055Z,93.06
2022-11-28T03:10:33.010Z,93.38
2022-11-28T03:13:20.218Z,93.52
2022-11-28T03:16:01.819Z,93.78
2022-11-28T03:18:37.834Z,93.81
2022-11-28T03:21:17.163Z,93.72
2022-11-28T03:23:52.726Z,93.84
2022-11-28T03:26:31.021Z,94.09
2022-11-28T03:29:13.318Z,94.10
2022-11-28T03:31:48.777Z,94.62
2022-11-28T03:34:22.550Z,95.00
2022-11-28T03:36:59.824Z,95.05
2022-11-28T03:39:36.913Z,95.46
2022-11-28T03:42:13.012Z,95.34
2022-11-28T03:44:49.870Z,95.73
2022-11-28T03:47:19.418Z,95.69
2022-11-28T03:52:07.248Z,95.69
2022-11-28T03:54:42.005Z,95.86
2022-11-28T03:57:16.974Z,95.87
2022-11-28T03:59:49.590Z,96.16
2022-11-28T04:02:27.521Z,96.21
2022-11-28T04:05:05.350Z,96.31
2022-11-28T04:07:43.335Z,96.16
2022-11-28T04:10:21.286Z,96.40
2022-11-28T04:12:58.726Z,96.46
2022-11-28T04:15:38.521Z,96.27
2022-11-28T04:18:21.024Z,96.39
2022-11-28T04:20:55.196Z,96.59
2022-11-28T04:23:28.642Z,96.64
2022-11-28T04:26:05.415Z,96.95
2022-11-28T04:28:37.291Z,96.69
2022-11-28T04:31:09.776Z,96.57
2022-11-28T04:33:45.522Z,97.06
2022-11-28T04:36:19.877Z,96.94
2022-11-28T04:38:56.729Z,96.90
2022-11-28T04:41:30.206Z,96.93
2022-11-28T04:44:06.884Z,97.01
2022-11-28T04:46:43.597Z,97.25
2022-11-28T04:49:14.113Z,97.27
2022-11-28T04:51:52.105Z,97.76
2022-11-28T04:54:33.128Z,99.06
2022-11-28T04:57:10.347Z,99.05
2022-11-28T04:59:42.138Z,99.22
2022-11-28T05:02:14.071Z,98.91
2022-11-28T05:04:45.970Z,98.84
2022-11-28T05:07:15.787Z,98.90
2022-11-28T05:09:46.751Z,98.77
2022-11-28T05:12:16.312Z,98.67
2022-11-28T05:14:45.912Z,98.75
2022-11-28T05:17:15.964Z,99.31
2022-11-28T05:19:45.409Z,98.54
2022-11-28T05:22:14.750Z,98.43
2022-11-28T05:24:45.897Z,99.17
2022-11-28T05:27:15.673Z,99.17
2022-11-28T05:29:51.903Z,99.41
2022-11-28T05:32:21.680Z,99.30
2022-11-28T05:34:51.060Z,99.75
2022-11-28T05:37:20.485Z,99.89
2022-11-28T05:39:51.324Z,99.89
2022-11-28T05:42:20.821Z,100.00
2022-11-28T05:44:50.668Z,99.99
2022-11-28T05:47:20.116Z,99.73
2022-11-28T05:49:50.150Z,99.84
2022-11-28T05:52:19.619Z,100.00
2022-11-28T05:54:50.419Z,100.00
2022-11-28T05:57:21.132Z,99.93
2022-11-28T05:59:50.486Z,100.00
2022-11-28T06:02:20.002Z,100.00
2022-11-28T06:04:49.496Z,100.00
2022-11-28T06:07:20.188Z,99.83
2022-11-28T06:09:50.967Z,99.80
2022-11-28T06:12:20.555Z,99.43
2022-11-28T06:14:49.839Z,99.94
2022-11-28T06:17:19.325Z,99.75
2022-11-28T06:19:48.854Z,99.80
2022-11-28T06:22:18.380Z,100.00
2022-11-28T06:24:49.425Z,100.00
2022-11-28T06:27:18.900Z,99.78
2022-11-28T06:29:48.292Z,99.75
2022-11-28T06:32:21.914Z,99.74
2022-11-28T06:34:51.816Z,99.25
2022-11-28T06:37:21.410Z,98.68
2022-11-28T06:39:52.626Z,99.63
2022-11-28T06:42:22.231Z,99.22
2022-11-28T06:44:51.712Z,99.23
2022-11-28T06:47:21.146Z,99.14
2022-11-28T06:52:02.938Z,99.16
2022-11-28T06:54:32.710Z,99.00
2022-11-28T06:57:02.237Z,99.40
2022-11-28T06:59:32.188Z,98.89
2022-11-28T07:02:07.196Z,98.98
2022-11-28T07:04:37.708Z,99.11
2022-11-28T07:07:10.680Z,99.08
2022-11-28T07:09:43.939Z,99.53
2022-11-28T07:12:13.684Z,98.75
2022-11-28T07:14:42.963Z,99.08
2022-11-28T07:17:12.273Z,99.49
2022-11-28T07:19:41.927Z,98.58
2022-11-28T07:22:14.046Z,98.72
2022-11-28T07:24:43.633Z,98.53
2022-11-28T07:27:13.003Z,98.94
2022-11-28T07:29:42.930Z,98.53
2022-11-28T07:32:12.906Z,98.88
2022-11-28T07:34:44.621Z,98.73
2022-11-28T07:37:18.543Z,98.47
2022-11-28T07:39:48.008Z,98.66
2022-11-28T07:42:18.679Z,98.67
2022-11-28T07:44:49.293Z,98.67
2022-11-28T07:47:18.623Z,98.51
2022-11-28T07:49:48.222Z,98.25
2022-11-28T07:52:19.000Z,98.35
2022-11-28T07:54:50.107Z,98.06
2022-11-28T07:57:20.275Z,98.44
2022-11-28T07:59:50.329Z,98.46
2022-11-28T08:02:19.762Z,97.75
2022-11-28T08:04:53.970Z,97.50
2022-11-28T08:07:26.252Z,96.65
2022-11-28T08:09:55.872Z,98.15
2022-11-28T08:12:25.339Z,97.61
2022-11-28T08:14:54.745Z,97.88
2022-11-28T08:17:24.230Z,97.58
2022-11-28T08:19:53.708Z,97.00
2022-11-28T08:22:24.413Z,97.68
2022-11-28T08:24:53.979Z,97.17
2022-11-28T08:27:23.510Z,96.87
2022-11-28T08:29:53.953Z,96.61
2022-11-28T08:32:23.733Z,96.98
2022-11-28T08:34:53.222Z,96.79
2022-11-28T08:37:22.551Z,96.81
2022-11-28T08:39:53.430Z,96.09
2022-11-28T08:42:23.569Z,97.06
2022-11-28T08:44:53.150Z,96.69
2022-11-28T08:47:22.591Z,97.27
2022-11-28T08:49:51.973Z,96.50
2022-11-28T08:52:22.384Z,96.87
2022-11-28T08:54:53.190Z,97.01
2022-11-28T08:57:22.747Z,97.34
2022-11-28T08:59:52.272Z,96.98
2022-11-28T09:02:25.814Z,96.48
2022-11-28T09:04:55.714Z,96.57
2022-11-28T09:07:25.211Z,96.56
2022-11-28T09:09:57.331Z,96.97
2022-11-28T09:12:26.824Z,97.05
2022-11-28T09:14:56.337Z,97.39
2022-11-28T09:17:25.913Z,96.79
2022-11-28T09:19:55.330Z,96.86
2022-11-28T09:22:24.717Z,96.17
2022-11-28T09:24:55.590Z,96.40
2022-11-28T09:27:25.066Z,96.67
2022-11-28T09:29:54.499Z,96.04
2022-11-28T09:32:23.962Z,96.23
2022-11-28T09:34:53.370Z,96.20
2022-11-28T09:37:22.910Z,95.88
2022-11-28T09:40:12.268Z,96.21
2022-11-28T09:42:45.982Z,95.95
2022-11-28T09:45:19.936Z,96.55
2022-11-28T09:47:53.384Z,96.38
2022-11-28T09:52:08.214Z,96.75
2022-11-28T09:54:48.979Z,96.77
2022-11-28T09:57:26.549Z,97.03
2022-11-28T09:59:57.593Z,97.08
2022-11-28T10:02:36.431Z,97.10
2022-11-28T10:05:19.151Z,97.02
2022-11-28T10:08:06.762Z,96.43
2022-11-28T10:10:50.600Z,96.63
2022-11-28T10:13:41.237Z,97.06
2022-11-28T10:16:25.676Z,96.92
2022-11-28T10:19:02.331Z,96.00
2022-11-28T10:21:39.755Z,96.77
2022-11-28T10:24:17.100Z,96.71
2022-11-28T10:26:51.942Z,96.72
2022-11-28T10:29:30.884Z,96.47
2022-11-28T10:32:03.850Z,96.80
2022-11-28T10:34:38.040Z,97.23
2022-11-28T10:37:12.399Z,97.50
2022-11-28T10:39:46.931Z,97.47
2022-11-28T10:42:28.216Z,96.90
2022-11-28T10:45:18.230Z,97.15
2022-11-28T10:48:29.884Z,97.24
2022-11-28T10:51:09.699Z,97.66
2022-11-28T10:53:53.239Z,97.88
2022-11-28T10:56:36.071Z,97.07
2022-11-28T10:59:20.123Z,97.78
2022-11-28T11:01:51.627Z,97.50
2022-11-28T11:04:26.902Z,97.61
2022-11-28T11:07:16.173Z,97.33
2022-11-28T11:09:47.958Z,97.91
2022-11-28T11:12:25.512Z,97.88
2022-11-28T11:14:55.491Z,98.20
2022-11-28T11:17:36.632Z,98.46
2022-11-28T11:20:34.993Z,98.24
2022-11-28T11:23:16.605Z,98.47
2022-11-28T11:25:56.450Z,97.47
2022-11-28T11:28:47.028Z,98.43
2022-11-28T11:31:25.555Z,97.97
2022-11-28T11:34:04.010Z,98.49
2022-11-28T11:36:37.974Z,99.03
2022-11-28T11:39:25.629Z,98.98
2022-11-28T11:42:13.739Z,98.83
2022-11-28T11:44:44.651Z,97.26
2022-11-28T11:47:14.060Z,98.37
2022-11-28T11:49:46.625Z,98.10
2022-11-28T11:52:23.677Z,97.78
2022-11-28T11:55:01.527Z,97.73
2022-11-28T11:57:37.228Z,98.61
2022-11-28T12:00:16.547Z,98.71
2022-11-28T12:02:51.569Z,98.42
2022-11-28T12:05:25.326Z,98.17
2022-11-28T12:08:01.606Z,98.28
2022-11-28T12:10:37.858Z,98.51
2022-11-28T12:13:07.449Z,98.45
2022-11-28T12:15:48.614Z,98.01
2022-11-28T12:18:34.243Z,97.46
2022-11-28T12:21:14.764Z,97.40
2022-11-28T12:24:08.795Z,97.88
2022-11-28T12:26:46.952Z,97.87
2022-11-28T12:29:48.773Z,98.21
2022-11-28T12:32:40.370Z,98.16
2022-11-28T12:35:28.596Z,97.59
2022-11-28T12:38:11.344Z,97.60
2022-11-28T12:40:58.300Z,97.57
2022-11-28T12:43:43.754Z,97.67
2022-11-28T12:46:24.996Z,96.56
2022-11-28T12:52:20.985Z,96.90
2022-11-28T12:55:13.843Z,96.93
2022-11-28T12:57:53.232Z,97.16
2022-11-28T13:00:25.608Z,97.09
2022-11-28T13:03:17.320Z,97.02
2022-11-28T13:06:05.191Z,97.44
2022-11-28T13:09:02.493Z,97.44
2022-11-28T13:11:51.208Z,96.95
2022-11-28T13:14:35.118Z,96.88
2022-11-28T13:17:20.326Z,97.05
2022-11-28T13:19:56.787Z,96.88
2022-11-28T13:22:29.712Z,97.00
2022-11-28T13:25:08.808Z,97.47
2022-11-28T13:27:49.767Z,97.92
2022-11-28T13:30:23.939Z,98.78
2022-11-28T13:33:03.120Z,98.93
2022-11-28T13:35:33.247Z,98.93
2022-11-28T13:41:35.189Z,99.20
2022-11-28T13:44:09.521Z,99.55
2022-11-28T13:46:39.046Z,100.00
2022-11-28T13:49:20.812Z,99.97
2022-11-28T13:51:50.933Z,100.00
2022-11-28T13:54:52.803Z,100.00
2022-11-28T13:57:33.235Z,100.00
2022-11-28T14:00:08.591Z,100.00
2022-11-28T14:02:46.855Z,100.00
2022-11-28T14:05:36.840Z,100.00
2022-11-28T14:08:08.546Z,100.00
2022-11-28T14:11:13.971Z,100.00
2022-11-28T14:14:17.741Z,100.00
2022-11-28T14:17:04.983Z,100.00
2022-11-28T14:19:57.364Z,100.00
2022-11-28T14:22:42.613Z,100.00
2022-11-28T14:25:19.341Z,100.00
2022-11-28T14:27:55.191Z,100.00
2022-11-28T14:30:34.051Z,100.00
2022-11-28T14:33:08.393Z,100.00
2022-11-28T14:36:26.231Z,100.00
2022-11-28T14:39:33.891Z,100.00
2022-11-28T14:42:59.600Z,100.00
2022-11-28T14:45:46.059Z,100.00
2022-11-28T14:48:31.998Z,100.00
2022-11-28T14:51:02.662Z,100.00
2022-11-28T14:53:47.521Z,100.00
2022-11-28T14:56:30.542Z,100.00
2022-11-28T14:59:03.686Z,100.00
2022-11-28T15:01:50.764Z,100.00
2022-11-28T15:04:50.249Z,100.00
2022-11-28T15:07:33.296Z,100.00
2022-11-28T15:10:09.073Z,100.00
2022-11-28T15:12:52.339Z,100.00
2022-11-28T15:15:22.893Z,100.00
2022-11-28T15:17:56.880Z,100.00
2022-11-28T15:20:31.511Z,100.00
2022-11-28T15:23:00.924Z,100.00
2022-11-28T15:25:35.818Z,100.00
2022-11-28T15:28:17.033Z,100.00
2022-11-28T15:30:49.290Z,100.00
2022-11-28T15:33:20.487Z,100.00
2022-11-28T15:36:02.345Z,100.00
2022-11-28T15:38:34.112Z,100.00
2022-11-28T15:41:03.524Z,100.00
2022-11-28T15:43:33.445Z,100.00
2022-11-28T15:46:04.251Z,100.00
2022-11-28T15:52:05.578Z,100.00
2022-11-28T15:54:43.774Z,100.00
2022-11-28T15:57:25.420Z,100.00
2022-11-28T15:59:55.784Z,100.00
2022-11-28T16:02:32.541Z,100.00
2022-11-28T16:05:09.012Z,100.00
2022-11-28T16:07:45.308Z,100.00
2022-11-28T16:10:25.364Z,100.00
2022-11-28T16:13:02.667Z,100.00
2022-11-28T16:15:33.467Z,100.00
2022-11-28T16:18:03.053Z,100.00
2022-11-28T16:20:38.136Z,100.00
2022-11-28T16:23:16.333Z,100.00
2022-11-28T16:25:47.291Z,100.00
2022-11-28T16:28:36.066Z,100.00
2022-11-28T16:31:13.541Z,100.00
2022-11-28T16:33:45.078Z,100.00
2022-11-28T16:36:23.307Z,100.00
2022-11-28T16:39:06.781Z,100.00
2022-11-28T16:41:36.958Z,100.00
2022-11-28T16:44:11.519Z,100.00
2022-11-28T16:46:50.258Z,100.00
2022-11-28T16:49:36.639Z,100.00
2022-11-28T16:52:54.119Z,100.00
2022-11-28T16:55:46.618Z,100.00
2022-11-28T16:58:24.025Z,100.00
2022-11-28T17:01:04.671Z,100.00
2022-11-28T17:03:58.233Z,100.00
2022-11-28T17:06:34.207Z,100.00
2022-11-28T17:09:04.861Z,100.00
2022-11-28T17:11:38.910Z,100.00
2022-11-28T17:14:13.209Z,100.00
2022-11-28T17:16:43.993Z,100.00
2022-11-28T17:19:13.681Z,100.00
2022-11-28T17:21:46.215Z,100.00
2022-11-28T17:24:20.483Z,100.00
2022-11-28T17:26:52.526Z,100.00
2022-11-28T17:29:22.975Z,100.00
2022-11-28T17:31:55.427Z,100.00
2022-11-28T17:34:27.044Z,100.00
2022-11-28T17:36:56.549Z,100.00
2022-11-28T17:39:27.683Z,100.00
2022-11-28T17:41:59.468Z,100.00
2022-11-28T17:44:31.989Z,100.00
2022-11-28T17:47:03.406Z,100.00
2022-11-28T17:49:33.433Z,100.00
2022-11-28T17:52:02.902Z,100.00
2022-11-28T17:54:32.269Z,100.00
2022-11-28T17:57:03.083Z,100.00
2022-11-28T17:59:34.532Z,100.00
2022-11-28T18:02:04.190Z,100.00
2022-11-28T18:04:33.572Z,100.00
2022-11-28T18:07:03.059Z,100.00
2022-11-28T18:09:32.469Z,100.00
2022-11-28T18:12:03.306Z,100.00
2022-11-28T18:14:38.113Z,100.00
2022-11-28T18:17:09.092Z,100.00
2022-11-28T18:19:38.414Z,100.00
2022-11-28T18:22:08.910Z,100.00
2022-11-28T18:24:38.345Z,100.00
2022-11-28T18:27:09.277Z,100.00
2022-11-28T18:29:39.390Z,100.00
2022-11-28T18:32:08.996Z,100.00
2022-11-28T18:34:38.343Z,100.00
2022-11-28T18:37:07.832Z,100.00
2022-11-28T18:39:37.537Z,100.00
2022-11-28T18:42:08.381Z,100.00
2022-11-28T18:44:37.843Z,100.00
2022-11-28T18:47:07.420Z,100.00
2022-11-28T18:52:03.162Z,100.00
2022-11-28T18:54:33.334Z,100.00
2022-11-28T18:57:03.007Z,100.00
2022-11-28T18:59:32.492Z,100.00
2022-11-28T19:02:02.033Z,100.00
2022-11-28T19:04:31.568Z,100.00
2022-11-28T19:07:04.167Z,100.00
2022-11-28T19:09:33.671Z,100.00
2022-11-28T19:12:03.167Z,100.00
2022-11-28T19:14:32.873Z,100.00
2022-11-28T19:17:03.025Z,100.00
2022-11-28T19:19:33.309Z,100.00
2022-11-28T19:22:04.187Z,100.00
2022-11-28T19:24:33.692Z,100.00
2022-11-28T19:27:03.167Z,100.00
2022-11-28T19:29:32.809Z,100.00
2022-11-28T19:32:02.148Z,100.00
2022-11-28T19:34:31.559Z,100.00
2022-11-28T19:37:02.428Z,100.00
2022-11-28T19:39:31.888Z,100.00
2022-11-28T19:42:01.481Z,100.00
2022-11-28T19:44:31.073Z,100.00
2022-11-28T19:47:01.080Z,100.00
2022-11-28T19:49:30.692Z,100.00
2022-11-28T19:52:00.137Z,100.00
2022-11-28T19:54:30.935Z,100.00
2022-11-28T19:57:00.468Z,100.00
2022-11-28T19:59:31.549Z,100.00
2022-11-28T20:02:02.919Z,100.00
2022-11-28T20:04:32.405Z,100.00
2022-11-28T20:07:02.000Z,100.00
2022-11-28T20:09:33.395Z,100.00
2022-11-28T20:12:02.891Z,100.00
2022-11-28T20:14:32.754Z,100.00
2022-11-28T20:17:02.429Z,100.00
2022-11-28T20:19:31.981Z,100.00
2022-11-28T20:22:01.451Z,100.00
2022-11-28T20:24:32.329Z,100.00
2022-11-28T20:27:01.659Z,100.00
2022-11-28T20:29:31.498Z,100.00
2022-11-28T20:32:00.991Z,100.00
2022-11-28T20:34:30.693Z,100.00
2022-11-28T20:37:02.126Z,100.00
2022-11-28T20:39:33.051Z,100.00
2022-11-28T20:42:02.452Z,100.00
2022-11-28T20:44:31.879Z,100.00
2022-11-28T20:47:01.250Z,100.00
2022-11-28T20:49:30.604Z,100.00
2022-11-28T20:52:00.108Z,100.00
2022-11-28T20:54:29.850Z,100.00
2022-11-28T20:59:50.841Z,100.00
2022-11-28T21:02:20.269Z,100.00
2022-11-28T21:04:49.699Z,100.00
2022-11-28T21:07:19.549Z,100.00
2022-11-28T21:09:49.104Z,100.00
2022-11-28T21:12:21.281Z,100.00
2022-11-28T21:14:52.242Z,100.00
2022-11-28T21:17:21.779Z,100.00
2022-11-28T21:19:51.211Z,100.00
2022-11-28T21:22:20.564Z,100.00
2022-11-28T21:24:52.020Z,100.00
2022-11-28T21:27:22.742Z,100.00
2022-11-28T21:29:53.492Z,100.00
2022-11-28T21:32:22.794Z,100.00
2022-11-28T21:34:53.370Z,100.00
2022-11-28T21:37:22.674Z,100.00
2022-11-28T21:39:52.213Z,100.00
2022-11-28T21:42:23.088Z,100.00
2022-11-28T21:44:52.503Z,100.00
2022-11-28T21:47:22.047Z,100.00
2022-11-28T21:52:02.841Z,100.00
2022-11-28T21:54:32.084Z,100.00
2022-11-28T21:57:01.626Z,100.00
2022-11-28T21:59:30.952Z,100.00
2022-11-28T22:02:00.543Z,100.00
2022-11-28T22:04:30.079Z,100.00
2022-11-28T22:06:59.426Z,100.00
2022-11-28T22:09:30.432Z,100.00
2022-11-28T22:11:59.770Z,100.00
2022-11-28T22:14:36.351Z,100.00
2022-11-28T22:17:06.183Z,100.00
2022-11-28T22:19:35.632Z,100.00
2022-11-28T22:22:05.018Z,100.00
2022-11-28T22:24:36.131Z,100.00
2022-11-28T22:27:05.732Z,100.00
2022-11-28T22:29:35.162Z,100.00
2022-11-28T22:32:04.743Z,100.00
2022-11-28T22:34:38.474Z,100.00
2022-11-28T22:37:09.505Z,100.00
2022-11-28T22:39:40.512Z,100.00
2022-11-28T22:42:10.040Z,100.00
2022-11-28T22:44:39.412Z,100.00
2022-11-28T22:47:08.856Z,100.00
2022-11-28T22:49:38.156Z,100.00
2022-11-28T22:52:07.845Z,100.00
2022-11-28T22:54:38.788Z,100.00
2022-11-28T22:57:08.331Z,100.00
2022-11-28T22:59:38.801Z,100.00
2022-11-28T23:02:09.997Z,100.00
2022-11-28T23:04:39.487Z,100.00
2022-11-28T23:07:08.965Z,100.00
2022-11-28T23:09:39.995Z,100.00
2022-11-28T23:12:09.604Z,100.00
2022-11-28T23:14:39.072Z,100.00
2022-11-28T23:17:08.706Z,100.00
2022-11-28T23:19:38.345Z,100.00
2022-11-28T23:22:07.860Z,100.00
2022-11-28T23:24:38.656Z,100.00
2022-11-28T23:27:08.105Z,100.00
2022-11-28T23:29:37.640Z,100.00
2022-11-28T23:32:07.680Z,100.00
2022-11-28T23:34:37.051Z,100.00
2022-11-28T23:37:06.532Z,100.00
2022-11-28T23:39:35.981Z,100.00
2022-11-28T23:42:07.166Z,100.00
2022-11-28T23:44:36.710Z,100.00
2022-11-28T23:47:06.770Z,100.00
2022-11-28T23:49:36.072Z,100.00
2022-11-28T23:52:05.735Z,100.00
2022-11-28T23:54:35.209Z,100.00
2022-11-28T23:57:06.192Z,100.00
2022-11-28T23:59:35.795Z,100.00
